Time;durP1;ratioP1;P1;durP2;ratioP2;P2;SDS_P1;SDS_P2;PMS_P1;PMS_P2;Temp;Humidity;BMP_temperature;BMP_pressure;BME280_temperature;BME280_humidity;BME280_pressure;Samples;Min_cycle;Max_cycle;Signal;HPM_P1;HPM_P2
2023/09/04 00:00:56;;;;;;;7.20;2.47;;;15.60;99.90;;;14.62;95.99;102336.88;4933634;29;20031;-74
2023/09/04 00:03:22;;;;;;;7.07;3.10;;;15.60;99.90;;;14.60;95.93;102340.50;4929734;29;20059;-73
2023/09/04 00:05:48;;;;;;;7.50;2.47;;;15.50;99.90;;;14.58;95.80;102343.22;4928027;29;20567;-73
2023/09/04 00:08:14;;;;;;;9.07;3.33;;;15.50;99.90;;;14.56;96.20;102345.06;4933565;29;20083;-74
2023/09/04 00:10:40;;;;;;;5.25;2.55;;;15.50;99.90;;;14.52;96.36;102346.06;4933785;29;20059;-73
2023/09/04 00:13:06;;;;;;;7.00;2.60;;;15.90;99.90;;;14.48;97.21;102340.00;4928133;29;20032;-73
2023/09/04 00:15:31;;;;;;;7.30;3.10;;;15.40;99.90;;;14.47;97.32;102346.25;4932056;29;20036;-73
2023/09/04 00:17:57;;;;;;;3.95;2.88;;;15.40;99.90;;;14.45;97.71;102341.91;4934605;29;20046;-73
2023/09/04 00:20:24;;;;;;;7.97;3.03;;;15.40;99.90;;;14.44;97.83;102350.78;4933839;29;20099;-73
2023/09/04 00:22:50;;;;;;;10.02;2.97;;;15.40;99.90;;;14.40;97.91;102342.06;4928039;29;20032;-73
2023/09/04 00:25:16;;;;;;;3.97;3.13;;;15.40;99.90;;;14.37;97.68;102344.84;4945126;29;20102;-73
2023/09/04 00:27:42;;;;;;;7.20;3.42;;;15.30;99.90;;;14.36;97.73;102345.75;4931241;29;20055;-74
2023/09/04 00:30:08;;;;;;;6.10;2.88;;;15.30;99.90;;;14.32;97.83;102341.53;4947736;29;20070;-73
2023/09/04 00:32:34;;;;;;;9.32;3.90;;;15.20;99.90;;;14.28;97.89;102347.84;4931692;29;20067;-73
2023/09/04 00:34:59;;;;;;;4.82;3.50;;;15.20;99.90;;;14.24;97.80;102343.56;4933857;29;20091;-73
2023/09/04 00:37:25;;;;;;;12.68;4.30;;;15.20;99.90;;;14.22;97.52;102348.06;4932561;29;20412;-74
2023/09/04 00:39:51;;;;;;;6.30;3.10;;;15.20;99.90;;;14.15;97.44;102342.97;4932879;29;20028;-73
2023/09/04 00:42:16;;;;;;;5.10;3.10;;;15.10;99.90;;;14.12;97.17;102344.88;4930938;29;20091;-73
2023/09/04 00:44:47;;;;;;;5.22;3.10;;;15.10;99.90;;;14.08;97.32;102345.88;4931978;29;20035;-73
2023/09/04 00:47:14;;;;;;;7.60;3.58;;;15.00;99.90;;;14.06;97.45;102353.03;4932818;29;20027;-73
2023/09/04 00:49:42;;;;;;;4.95;3.17;;;15.00;99.90;;;14.02;97.71;102349.63;4930514;29;20123;-74
2023/09/04 00:52:08;;;;;;;6.60;3.20;;;15.00;99.90;;;14.01;98.15;102347.91;4932652;29;20087;-73
2023/09/04 00:54:35;;;;;;;8.88;3.65;;;14.90;99.90;;;14.01;98.24;102339.94;4931197;29;20027;-74
2023/09/04 00:57:03;;;;;;;7.32;3.45;;;14.90;99.90;;;14.01;98.42;102342.59;4936899;29;20043;-73
2023/09/04 00:59:29;;;;;;;8.55;4.18;;;14.90;99.90;;;13.98;98.66;102332.13;4933122;29;20020;-73
2023/09/04 01:01:59;;;;;;;8.48;3.95;;;14.90;99.90;;;13.95;99.14;102329.56;4931444;29;20036;-73
2023/09/04 01:04:25;;;;;;;10.00;4.32;;;14.90;99.90;;;13.91;99.30;102331.47;4931215;29;20119;-74
2023/09/04 01:06:53;;;;;;;9.05;4.20;;;14.90;99.90;;;13.88;99.61;102325.41;4928091;29;20094;-73
2023/09/04 01:09:22;;;;;;;8.32;4.32;;;14.80;99.90;;;13.84;99.35;102339.66;4931176;29;20027;-74
2023/09/04 01:12:47;;;;;;;11.82;4.10;;;14.80;99.90;;;13.79;99.31;102341.63;4932733;29;20478;-73
2023/09/04 01:15:13;;;;;;;10.45;4.03;;;14.70;99.90;;;13.71;99.86;102340.13;4928518;29;20103;-74
2023/09/04 01:17:39;;;;;;;7.03;4.07;;;14.70;99.90;;;13.69;100.00;102341.06;4930710;29;20039;-73
2023/09/04 01:20:23;;;;;;;10.43;4.45;;;14.70;99.90;;;13.68;100.00;102350.78;4930969;29;20066;-74
2023/09/04 01:22:48;;;;;;;6.68;3.90;;;14.70;99.90;;;13.68;100.00;102342.84;4924524;29;20401;-73
2023/09/04 01:25:15;;;;;;;8.80;3.88;;;14.70;99.90;;;13.70;100.00;102337.50;4920179;29;20032;-73
2023/09/04 01:27:53;;;;;;;7.25;4.35;;;14.70;99.90;;;13.70;100.00;102333.06;4932308;29;20028;-74
2023/09/04 01:30:46;;;;;;;18.50;5.60;;;14.60;99.90;;;13.71;100.00;102340.13;4927514;29;20040;-73
2023/09/04 01:33:19;;;;;;;6.97;4.50;;;14.70;99.90;;;13.68;100.00;102337.56;4927934;29;20230;-73
2023/09/04 01:35:48;;;;;;;10.65;4.88;;;14.60;99.90;;;13.67;100.00;102338.50;4931682;29;20042;-73
2023/09/04 01:38:14;;;;;;;8.02;4.15;;;14.60;99.90;;;13.64;100.00;102340.38;4932471;29;20028;-73
2023/09/04 01:40:40;;;;;;;12.60;6.05;;;14.60;99.90;;;13.61;100.00;102341.34;4931054;29;20115;-73
2023/09/04 01:43:06;;;;;;;10.93;6.07;;;14.60;99.90;;;13.58;100.00;102352.00;4944893;29;20537;-73
2023/09/04 01:45:32;;;;;;;13.85;7.30;;;14.50;99.90;;;13.54;100.00;102348.63;4932978;29;20039;-73
2023/09/04 01:47:58;;;;;;;10.90;6.00;;;14.60;99.90;;;13.51;100.00;102361.06;4923669;29;20381;-73
2023/09/04 01:50:23;;;;;;;10.20;5.38;;;14.50;99.90;;;13.48;100.00;102364.69;4930845;29;20047;-73
2023/09/04 01:52:49;;;;;;;6.93;4.70;;;14.50;99.90;;;13.46;100.00;102363.03;4933136;29;20746;-73
2023/09/04 01:55:15;;;;;;;12.85;4.50;;;14.50;99.90;;;13.44;100.00;102357.78;4929432;29;20028;-73
2023/09/04 01:57:40;;;;;;;10.63;4.70;;;14.40;99.90;;;13.43;100.00;102361.31;4932964;29;20032;-73
2023/09/04 02:00:07;;;;;;;9.32;4.85;;;14.40;99.90;;;13.41;100.00;102363.19;4931994;29;20042;-73
2023/09/04 02:02:33;;;;;;;11.85;5.47;;;14.40;99.90;;;13.40;100.00;102363.22;4930805;29;20028;-73
2023/09/04 02:04:59;;;;;;;13.43;7.03;;;14.40;99.90;;;13.36;100.00;102361.59;4928122;29;20062;-74
2023/09/04 02:07:24;;;;;;;9.43;5.63;;;14.30;99.90;;;13.30;100.00;102355.59;4931537;29;20027;-73
2023/09/04 02:09:50;;;;;;;11.45;5.82;;;14.30;99.90;;;13.26;100.00;102353.03;4931858;29;20087;-74
2023/09/04 02:12:16;;;;;;;15.40;7.65;;;14.20;99.90;;;13.21;100.00;102353.19;4923527;29;20493;-73
2023/09/04 02:14:41;;;;;;;9.60;7.30;;;14.10;99.90;;;13.15;100.00;102356.00;4923872;29;20043;-73
2023/09/04 02:17:07;;;;;;;10.98;5.43;;;14.10;99.90;;;13.08;100.00;102357.13;4931976;29;20035;-74
2023/09/04 02:19:35;;;;;;;11.48;6.88;;;14.10;99.90;;;13.01;100.00;102358.25;4930156;29;20552;-73
2023/09/04 02:22:00;;;;;;;11.88;6.10;;;14.00;99.90;;;12.93;100.00;102359.31;4929902;29;20037;-73
2023/09/04 02:24:26;;;;;;;12.20;5.90;;;14.00;99.90;;;12.90;100.00;102366.50;4931257;29;20040;-73
2023/09/04 02:26:52;;;;;;;10.05;8.15;;;13.90;99.90;;;12.83;100.00;102368.47;4941099;29;20285;-73
2023/09/04 02:29:17;;;;;;;13.70;8.52;;;13.90;99.90;;;12.80;100.00;102363.25;4927751;29;20028;-73
2023/09/04 02:31:43;;;;;;;19.27;9.00;;;13.90;99.90;;;12.83;100.00;102364.94;4941287;29;20043;-73
2023/09/04 02:34:09;;;;;;;18.30;9.82;;;13.90;99.90;;;12.83;100.00;102365.81;4928997;29;20059;-73
2023/09/04 02:36:34;;;;;;;20.30;9.98;;;13.90;99.90;;;12.86;100.00;102370.13;4932610;29;20036;-73
2023/09/04 02:39:00;;;;;;;15.88;10.07;;;13.90;99.90;;;12.94;100.00;102376.06;4931130;29;20028;-74
2023/09/04 02:41:26;;;;;;;18.67;10.77;;;13.90;99.90;;;13.02;100.00;102366.09;4944852;29;20374;-73
2023/09/04 02:43:51;;;;;;;14.68;10.00;;;14.10;99.90;;;13.11;100.00;102372.91;4930785;29;20040;-74
2023/09/04 02:46:17;;;;;;;20.23;10.75;;;14.20;99.90;;;13.19;100.00;102373.53;4928063;29;20408;-73
2023/09/04 02:48:43;;;;;;;19.60;10.63;;;14.20;99.90;;;13.27;100.00;102376.78;4932460;29;20493;-74
2023/09/04 02:51:08;;;;;;;19.58;10.52;;;14.30;99.90;;;13.32;100.00;102380.19;4927309;29;20040;-73
2023/09/04 02:53:34;;;;;;;21.05;10.68;;;14.30;99.90;;;13.38;100.00;102383.56;4932069;29;20036;-74
2023/09/04 02:56:00;;;;;;;22.52;11.70;;;14.40;99.90;;;13.41;100.00;102381.69;4932535;29;20036;-73
2023/09/04 02:58:26;;;;;;;18.17;11.15;;;14.40;99.90;;;13.44;100.00;102380.72;4946450;23;20020;-72
2023/09/04 03:00:52;;;;;;;23.92;11.40;;;14.40;99.90;;;13.45;100.00;102379.78;4959851;28;20070;-71
2023/09/04 03:03:24;;;;;;;25.38;11.10;;;14.40;99.90;;;13.46;100.00;102382.41;4969356;28;20033;-71
2023/09/04 03:05:50;;;;;;;17.55;10.65;;;14.50;99.90;;;13.46;100.00;102381.53;4969631;28;20033;-71
2023/09/04 03:08:15;;;;;;;20.35;11.40;;;14.50;99.90;;;13.46;100.00;102382.41;4951638;28;20440;-72
2023/09/04 03:10:41;;;;;;;18.38;10.95;;;14.50;99.90;;;13.47;100.00;102372.69;4974315;28;20493;-71
2023/09/04 03:13:07;;;;;;;19.35;10.98;;;14.50;99.90;;;13.45;100.00;102375.34;4981361;28;20038;-73
2023/09/04 03:15:32;;;;;;;18.77;12.38;;;14.40;99.90;;;13.45;100.00;102371.84;4978503;28;20034;-70
2023/09/04 03:17:58;;;;;;;20.85;12.45;;;14.40;99.90;;;13.41;100.00;102379.06;4971869;28;20491;-70
2023/09/04 03:20:24;;;;;;;14.70;10.70;;;14.40;99.90;;;13.39;100.00;102380.88;4980354;28;20030;-71
2023/09/04 03:22:49;;;;;;;17.35;11.13;;;14.40;99.90;;;13.36;100.00;102378.31;4978064;28;20034;-72
2023/09/04 03:25:15;;;;;;;13.88;10.02;;;14.30;99.90;;;13.33;100.00;102376.63;4981366;28;20071;-72
2023/09/04 03:27:41;;;;;;;13.23;9.38;;;14.30;99.90;;;13.28;100.00;102375.94;4982662;28;20564;-72
2023/09/04 03:30:07;;;;;;;19.88;12.02;;;14.30;99.90;;;13.25;100.00;102367.19;4968802;28;20022;-72
2023/09/04 03:32:33;;;;;;;22.00;10.93;;;14.20;99.90;;;13.21;100.00;102363.75;4982739;28;20022;-72
2023/09/04 03:34:59;;;;;;;17.50;11.50;;;14.20;99.90;;;13.17;100.00;102363.91;4980234;28;20035;-72
2023/09/04 03:37:24;;;;;;;16.13;11.27;;;14.10;99.90;;;13.14;100.00;102370.16;4983958;28;20041;-70
2023/09/04 03:39:50;;;;;;;16.95;11.73;;;14.10;99.90;;;13.12;100.00;102367.56;4980771;28;20057;-71
2023/09/04 03:42:16;;;;;;;17.85;11.23;;;14.10;99.90;;;13.08;100.00;102379.13;4979000;28;20050;-71
2023/09/04 03:44:41;;;;;;;26.85;13.63;;;14.10;99.90;;;13.08;100.00;102376.50;4982224;28;20034;-72
2023/09/04 03:47:07;;;;;;;19.60;11.68;;;14.10;99.90;;;13.08;100.00;102383.56;4982206;28;20403;-71
2023/09/04 03:49:33;;;;;;;22.73;11.55;;;14.00;99.90;;;13.04;100.00;102387.22;4979670;28;20034;-70
2023/09/04 03:51:59;;;;;;;18.52;10.90;;;14.00;99.90;;;13.01;100.00;102390.81;4983702;28;20054;-70
2023/09/04 03:54:25;;;;;;;16.85;11.45;;;14.00;99.90;;;12.99;100.00;102392.66;4981530;28;20046;-70
2023/09/04 03:56:51;;;;;;;22.30;12.55;;;14.00;99.90;;;12.97;100.00;102391.81;4980981;28;20023;-71
2023/09/04 03:59:16;;;;;;;22.13;15.02;;;14.00;99.90;;;12.97;100.00;102396.25;4984873;28;20105;-71
2023/09/04 04:01:43;;;;;;;18.30;12.32;;;13.90;99.90;;;12.96;100.00;102400.69;4978794;28;20031;-71
2023/09/04 04:04:12;;;;;;;29.70;15.27;;;13.90;99.90;;;12.95;100.00;102396.28;4982616;28;20566;-71
2023/09/04 04:06:38;;;;;;;19.42;12.50;;;13.90;99.90;;;12.93;100.00;102391.03;4980178;28;20043;-72
2023/09/04 04:09:04;;;;;;;24.00;13.90;;;13.90;99.90;;;12.92;100.00;102385.81;4979202;28;20041;-71
2023/09/04 04:11:30;;;;;;;21.23;12.80;;;13.90;99.90;;;12.91;100.00;102399.94;4981646;28;20093;-71
2023/09/04 04:13:56;;;;;;;18.00;13.75;;;13.90;99.90;;;12.91;100.00;102398.19;4981221;28;20031;-72
2023/09/04 04:16:21;;;;;;;21.80;11.80;;;13.90;99.90;;;12.89;100.00;102404.41;4982583;28;20076;-71
2023/09/04 04:18:47;;;;;;;19.38;12.43;;;13.90;99.90;;;12.87;100.00;102408.88;4972828;28;20109;-70
2023/09/04 04:21:13;;;;;;;20.45;12.63;;;13.80;99.90;;;12.83;100.00;102408.13;4974333;28;20058;-72
2023/09/04 04:23:38;;;;;;;18.23;11.77;;;13.80;99.90;;;12.83;100.00;102412.50;4981443;28;20400;-72
2023/09/04 04:26:04;;;;;;;18.77;12.98;;;13.80;99.90;;;12.81;100.00;102409.94;4984224;28;20093;-72
2023/09/04 04:28:30;;;;;;;16.60;11.63;;;13.80;99.90;;;12.80;100.00;102410.81;4982642;28;20038;-70
2023/09/04 04:31:00;;;;;;;19.95;12.95;;;13.80;99.90;;;12.82;100.00;102416.06;4960228;28;20030;-71
2023/09/04 04:33:25;;;;;;;24.27;14.15;;;13.80;99.90;;;12.82;100.00;102416.94;4982972;28;20032;-71
2023/09/04 04:35:55;;;;;;;24.92;13.10;;;13.80;99.90;;;12.84;100.00;102419.53;4980110;28;20034;-71
2023/09/04 04:38:20;;;;;;;20.90;14.23;;;13.80;99.90;;;12.86;100.00;102412.44;4977998;28;20026;-72
2023/09/04 04:40:46;;;;;;;23.17;15.75;;;13.80;99.90;;;12.87;100.00;102420.34;4981013;28;20049;-72
2023/09/04 04:43:12;;;;;;;22.08;14.57;;;13.80;99.90;;;12.90;100.00;102411.44;4971794;28;20651;-70
2023/09/04 04:45:38;;;;;;;24.52;15.18;;;13.80;99.90;;;12.91;100.00;102413.16;4978994;28;20455;-71
2023/09/04 04:48:05;;;;;;;22.80;14.05;;;13.90;99.90;;;12.95;100.00;102421.88;4980126;28;20031;-71
2023/09/04 04:50:33;;;;;;;34.85;17.58;;;13.90;99.90;;;12.99;100.00;102415.59;4983314;28;20081;-71
2023/09/04 04:53:00;;;;;;;34.38;19.13;;;13.90;99.90;;;13.03;100.00;102417.22;4979072;28;20046;-71
2023/09/04 04:55:26;;;;;;;28.38;17.88;;;13.90;99.90;;;13.08;100.00;102412.66;4977943;28;20046;-71
2023/09/04 04:57:53;;;;;;;34.30;19.92;;;14.00;99.90;;;13.14;100.00;102415.13;4980576;28;20031;-71
2023/09/04 05:00:18;;;;;;;23.95;15.65;;;14.00;99.90;;;13.17;100.00;102419.44;4981190;28;20031;-72
2023/09/04 05:02:44;;;;;;;30.08;19.02;;;14.00;99.90;;;13.19;100.00;102423.78;4962999;28;20126;-70
2023/09/04 05:05:10;;;;;;;35.15;20.73;;;14.10;99.90;;;13.24;100.00;102419.22;4958477;28;20038;-70
2023/09/04 05:07:37;;;;;;;30.70;19.25;;;14.10;99.90;;;13.26;100.00;102425.34;4980936;28;20400;-71
2023/09/04 05:10:03;;;;;;;27.17;17.45;;;14.10;99.90;;;13.31;100.00;102418.16;4982760;28;20037;-71
2023/09/04 05:12:28;;;;;;;26.27;17.15;;;14.20;99.90;;;13.47;100.00;102420.31;4975451;28;20053;-70
2023/09/04 05:14:54;;;;;;;29.00;17.83;;;14.30;99.90;;;13.68;100.00;102430.19;4970621;28;20481;-71
2023/09/04 05:17:20;;;;;;;23.63;16.20;;;14.40;99.90;;;13.84;100.00;102432.34;4962753;28;20039;-72
2023/09/04 05:19:46;;;;;;;30.48;18.50;;;14.60;99.90;;;15.09;100.00;102437.63;4975224;28;20420;-74
2023/09/04 05:22:11;;;;;;;26.20;17.48;;;15.40;99.90;;;18.19;90.96;102451.38;4984260;28;20070;-72
2023/09/04 05:24:39;;;;;;;15.77;12.10;;;16.90;99.90;;;22.08;73.04;102481.88;4979986;28;20555;-71
2023/09/04 05:27:05;;;;;;;17.80;11.60;;;18.60;99.90;;;24.75;62.57;102499.16;4980233;28;20289;-71
2023/09/04 05:29:31;;;;;;;17.40;10.48;;;20.30;99.90;;;26.80;56.63;102510.94;4965299;28;20072;-71
2023/09/04 05:31:57;;;;;;;13.30;9.45;;;21.90;99.90;;;28.49;52.51;102539.88;4973640;28;20031;-72
2023/09/04 05:34:23;;;;;;;12.77;9.05;;;23.30;99.90;;;29.82;48.81;102562.16;4980882;28;20026;-72
2023/09/04 05:36:49;;;;;;;13.15;8.85;;;24.40;99.90;;;30.16;47.28;102568.78;4981231;28;20105;-72
2023/09/04 05:39:14;;;;;;;15.52;9.70;;;24.70;99.90;;;27.50;50.76;102554.34;4980344;28;20085;-72
2023/09/04 05:41:40;;;;;;;11.25;9.95;;;24.40;99.90;;;26.01;53.23;102539.38;4979429;28;20034;-72
2023/09/04 05:44:06;;;;;;;14.95;10.32;;;23.80;99.90;;;23.72;57.65;102504.34;4978357;28;20507;-72
2023/09/04 05:46:32;;;;;;;15.13;10.55;;;22.90;99.90;;;22.19;61.14;102500.78;4975868;28;20109;-73
2023/09/04 05:48:58;;;;;;;21.67;10.77;;;22.10;99.90;;;21.07;64.34;102495.53;4971763;28;20042;-73
2023/09/04 05:51:24;;;;;;;18.05;11.65;;;21.30;99.90;;;20.53;66.29;102483.75;4973766;28;20030;-73
2023/09/04 05:53:50;;;;;;;15.68;10.68;;;21.20;99.90;;;24.49;59.39;102523.66;4964189;28;20205;-72
2023/09/04 05:56:17;;;;;;;15.95;10.35;;;21.80;99.90;;;26.47;53.80;102548.97;4978816;28;20183;-73
2023/09/04 05:58:48;;;;;;;15.20;10.35;;;22.60;99.90;;;26.22;53.52;102542.09;4977459;28;20500;-71
2023/09/04 06:01:16;;;;;;;15.88;10.90;;;23.20;99.90;;;26.18;53.56;102545.06;4964986;28;20073;-73
2023/09/04 06:03:43;;;;;;;16.38;10.43;;;23.50;99.90;;;25.82;54.14;102538.19;4980243;28;20034;-72
2023/09/04 06:06:09;;;;;;;16.98;11.23;;;23.80;99.90;;;26.56;53.59;102561.69;4978391;28;20035;-72
2023/09/04 06:08:35;;;;;;;13.48;9.82;;;24.00;99.90;;;26.55;52.92;102563.53;4982992;28;20120;-73
2023/09/04 06:11:02;;;;;;;13.65;10.50;;;24.10;99.90;;;25.99;54.49;102553.84;4978449;28;20041;-72
2023/09/04 06:13:31;;;;;;;19.48;10.77;;;24.20;99.90;;;26.63;53.40;102562.91;4978304;28;20026;-74
2023/09/04 06:15:59;;;;;;;20.38;11.32;;;24.40;99.90;;;26.54;52.87;102560.94;4978512;28;20058;-73
2023/09/04 06:18:28;;;;;;;16.77;10.45;;;24.40;99.90;;;25.56;54.88;102556.50;4979439;28;20053;-73
2023/09/04 06:20:53;;;;;;;21.15;12.10;;;24.00;99.90;;;23.67;58.85;102536.06;4962309;28;20029;-72
2023/09/04 06:23:19;;;;;;;18.20;11.30;;;23.30;99.90;;;22.61;61.78;102525.66;4979336;28;20026;-72
2023/09/04 06:25:46;;;;;;;19.90;11.40;;;22.80;99.90;;;22.81;62.62;102523.44;4978889;28;20088;-73
2023/09/04 06:28:13;;;;;;;18.10;11.10;;;22.50;99.90;;;23.19;62.41;102519.88;4978149;28;20054;-72
2023/09/04 06:30:39;;;;;;;15.32;10.40;;;22.80;99.90;;;25.66;57.15;102541.28;4980774;28;20031;-73
2023/09/04 06:33:05;;;;;;;17.52;10.00;;;23.60;99.90;;;27.34;53.18;102571.09;4980954;28;20395;-73
2023/09/04 06:35:31;;;;;;;17.50;10.52;;;24.50;99.90;;;27.40;52.48;102564.28;4970911;28;20042;-72
2023/09/04 06:37:58;;;;;;;14.10;9.95;;;25.20;99.90;;;27.90;51.32;102572.38;4981311;28;20030;-72
2023/09/04 06:40:24;;;;;;;13.52;9.82;;;25.60;99.90;;;27.68;51.75;102564.50;4980988;28;20046;-72
2023/09/04 06:42:53;;;;;;;17.63;10.05;;;25.80;99.90;;;26.80;54.01;102551.50;4973347;28;20031;-73
2023/09/04 06:45:19;;;;;;;14.65;9.30;;;25.90;99.90;;;27.64;52.63;102558.50;4979840;28;20030;-73
2023/09/04 06:47:45;;;;;;;16.92;9.60;;;26.10;99.90;;;28.26;51.03;102569.97;4979760;28;20114;-74
2023/09/04 06:50:10;;;;;;;16.35;9.40;;;26.50;99.90;;;28.84;49.79;102566.34;4979235;28;20113;-72
2023/09/04 06:52:36;;;;;;;12.85;9.63;;;27.20;99.90;;;30.94;46.50;102592.50;4984596;28;20030;-72
2023/09/04 06:55:03;;;;;;;14.40;9.20;;;28.40;99.90;;;32.47;43.49;102605.06;4979519;28;20037;-72
2023/09/04 06:57:29;;;;;;;10.95;7.80;;;29.60;99.90;;;33.64;41.67;102611.75;4980777;28;20049;-73
2023/09/04 06:59:58;;;;;;;15.48;7.90;;;30.80;99.90;;;34.79;40.38;102621.84;4982317;28;20041;-73
2023/09/04 07:02:24;;;;;;;13.85;7.93;;;32.00;99.90;;;35.55;39.12;102635.34;4982706;28;20033;-74
2023/09/04 07:04:50;;;;;;;11.82;7.70;;;33.20;99.50;;;36.41;38.30;102646.44;4966838;28;20023;-72
2023/09/04 07:07:16;;;;;;;12.18;7.53;;;34.30;96.60;;;37.17;36.65;102656.75;4983902;28;20034;-72
2023/09/04 07:09:42;;;;;;;13.90;8.43;;;35.20;94.50;;;37.51;35.92;102658.59;4976974;28;20034;-72
2023/09/04 07:12:11;;;;;;;14.90;7.82;;;35.50;92.80;;;37.21;35.88;102655.28;4981339;28;20113;-72
2023/09/04 07:14:38;;;;;;;14.82;7.72;;;35.80;94.10;;;37.68;35.67;102666.53;4965256;28;20467;-73
2023/09/04 07:17:03;;;;;;;12.35;7.80;;;36.30;92.30;;;37.91;34.61;102660.69;4983935;28;20085;-72
2023/09/04 07:19:29;;;;;;;12.57;7.03;;;36.50;92.10;;;37.67;34.93;102673.94;4973950;28;20038;-73
2023/09/04 07:21:55;;;;;;;11.75;7.65;;;36.70;89.70;;;37.70;34.68;102676.25;4978871;28;20061;-74
2023/09/04 07:24:20;;;;;;;14.57;7.82;;;36.40;88.10;;;36.50;35.39;102660.84;4983081;28;20031;-72
2023/09/04 07:26:46;;;;;;;11.82;6.63;;;36.20;89.30;;;36.48;35.80;102657.44;4999246;28;20027;-72
2023/09/04 07:29:17;;;;;;;11.25;6.68;;;36.30;89.10;;;36.84;35.04;102668.34;4985125;28;20550;-72
2023/09/04 07:31:42;;;;;;;12.50;7.43;;;36.20;88.00;;;36.45;35.79;102658.69;4971687;28;20374;-72
2023/09/04 07:34:08;;;;;;;11.38;7.25;;;36.40;88.60;;;36.71;35.82;102665.50;4973554;28;20038;-72
2023/09/04 07:36:34;;;;;;;10.77;6.80;;;36.60;90.00;;;36.90;35.73;102656.56;4982392;28;20515;-73
2023/09/04 07:38:59;;;;;;;11.20;7.57;;;36.70;85.60;;;36.87;35.25;102675.31;4981227;28;20122;-72
2023/09/04 07:41:25;;;;;;;13.68;7.35;;;36.80;85.90;;;36.43;35.64;102666.28;4984450;28;20038;-72
2023/09/04 07:43:51;;;;;;;12.80;6.95;;;36.50;84.60;;;35.79;35.82;102661.59;4982873;28;20037;-71
2023/09/04 07:46:17;;;;;;;10.63;6.00;;;36.10;85.80;;;35.37;36.19;102654.09;4955500;28;20030;-72
2023/09/04 07:48:43;;;;;;;11.13;6.45;;;35.90;86.00;;;35.40;36.56;102640.88;4978478;28;20097;-73
2023/09/04 07:51:09;;;;;;;9.32;6.57;;;36.00;88.40;;;35.71;36.77;102632.41;4981615;28;20031;-72
2023/09/04 07:53:35;;;;;;;8.70;6.35;;;36.30;85.60;;;35.94;35.84;102643.22;4978182;28;20046;-72
2023/09/04 07:56:01;;;;;;;9.88;6.35;;;36.40;84.30;;;35.76;36.04;102641.94;4973416;28;20035;-72
2023/09/04 07:58:26;;;;;;;11.60;6.43;;;36.60;84.00;;;35.91;35.76;102649.06;4981078;28;20062;-73
2023/09/04 08:00:52;;;;;;;10.82;5.95;;;36.90;85.90;;;36.38;35.60;102646.84;4984880;28;20069;-71
2023/09/04 08:03:19;;;;;;;10.88;6.55;;;37.10;83.70;;;36.48;35.13;102649.22;4977853;28;20082;-72
2023/09/04 08:05:45;;;;;;;9.20;5.47;;;36.80;84.10;;;35.72;35.92;102634.13;4983127;28;20026;-71
2023/09/04 08:08:11;;;;;;;11.73;6.35;;;36.70;85.90;;;35.76;36.49;102631.00;4983421;28;20117;-72
2023/09/04 08:10:43;;;;;;;9.80;6.03;;;36.80;86.40;;;36.08;36.12;102624.16;4982154;28;20121;-72
2023/09/04 08:13:14;;;;;;;10.80;5.55;;;36.90;84.60;;;36.24;35.44;102620.31;4969678;28;20030;-72
2023/09/04 08:15:43;;;;;;;9.45;5.60;;;37.10;85.10;;;36.45;35.64;102625.78;4962284;28;20447;-73
2023/09/04 08:18:09;;;;;;;9.63;5.47;;;37.30;84.20;;;36.71;35.11;102632.56;4979415;28;20400;-72
2023/09/04 08:20:36;;;;;;;6.63;4.90;;;37.40;83.60;;;36.50;35.28;102630.66;4978772;28;20035;-72
2023/09/04 08:23:03;;;;;;;9.55;4.90;;;37.40;82.20;;;36.33;35.08;102630.13;4983400;28;20455;-72
2023/09/04 08:25:28;;;;;;;8.80;5.18;;;36.90;81.20;;;35.54;35.71;102634.50;4966355;28;20034;-73
2023/09/04 08:27:54;;;;;;;11.70;4.10;;;36.60;82.80;;;35.47;35.54;102624.50;4977758;28;20030;-72
2023/09/04 08:30:20;;;;;;;7.47;4.55;;;35.90;82.40;;;34.19;37.34;102611.78;4982342;28;20041;-72
2023/09/04 08:32:46;;;;;;;7.60;3.72;;;35.50;84.20;;;34.19;37.56;102609.91;4979282;28;20035;-72
2023/09/04 08:35:12;;;;;;;7.85;4.10;;;34.90;83.60;;;33.33;38.41;102608.13;4981594;28;20075;-71
2023/09/04 08:37:41;;;;;;;7.80;3.55;;;34.50;86.10;;;33.06;39.25;102591.16;4980021;28;20038;-72
2023/09/04 08:40:08;;;;;;;8.85;3.50;;;34.20;85.80;;;32.81;39.32;102588.50;4980554;28;20042;-72
2023/09/04 08:42:37;;;;;;;5.25;3.30;;;33.70;87.00;;;32.37;40.24;102588.00;4971537;28;20034;-72
2023/09/04 08:45:05;;;;;;;6.93;4.07;;;33.50;88.70;;;32.39;40.92;102575.06;4981188;28;20045;-71
2023/09/04 08:47:32;;;;;;;7.28;3.50;;;33.40;87.60;;;32.46;40.20;102585.13;4974075;28;20022;-72
2023/09/04 08:50:01;;;;;;;5.72;3.25;;;33.00;88.50;;;31.82;41.55;102568.53;4986184;28;20053;-71
2023/09/04 08:52:27;;;;;;;4.68;3.17;;;32.50;87.70;;;31.10;41.79;102549.03;4974140;28;20031;-72
2023/09/04 08:54:53;;;;;;;10.18;3.40;;;31.90;88.80;;;30.53;42.49;102546.00;4982069;28;20026;-72
2023/09/04 08:57:19;;;;;;;5.00;2.88;;;31.60;90.80;;;30.52;42.85;102541.56;4977836;28;20412;-73
2023/09/04 08:59:45;;;;;;;12.63;3.42;;;31.40;91.60;;;30.67;42.88;102535.38;4980579;28;20034;-73
2023/09/04 09:02:16;;;;;;;6.60;3.10;;;31.30;91.60;;;30.63;43.58;102534.00;4984094;23;20039;-75
2023/09/04 09:04:42;;;;;;;6.30;3.20;;;30.90;91.90;;;29.93;44.50;102523.06;4957475;28;20583;-76
2023/09/04 09:07:10;;;;;;;6.00;2.92;;;30.20;91.70;;;29.21;46.17;102501.25;4965032;28;20085;-75
2023/09/04 09:09:48;;;;;;;5.35;3.35;;;29.60;92.20;;;28.49;46.60;102491.13;4975182;28;20030;-75
2023/09/04 09:12:13;;;;;;;6.78;3.00;;;29.10;93.20;;;27.98;47.40;102493.16;4967010;28;20674;-74
2023/09/04 09:14:39;;;;;;;4.32;2.67;;;28.60;92.70;;;27.47;47.52;102488.84;4959612;28;20038;-75
2023/09/04 09:17:14;;;;;;;6.10;3.20;;;28.10;93.70;;;26.97;49.04;102476.16;4953386;28;20033;-75
2023/09/04 09:19:42;;;;;;;6.15;2.92;;;27.60;94.30;;;26.35;50.13;102456.34;4959212;28;20034;-75
2023/09/04 09:22:15;;;;;;;5.20;2.90;;;27.20;95.20;;;26.11;50.97;102460.19;4947950;28;20560;-74
2023/09/04 09:25:01;;;;;;;11.30;3.13;;;27.00;95.60;;;26.09;51.26;102456.78;4955268;28;20420;-75
2023/09/04 09:27:32;;;;;;;4.18;2.50;;;26.80;95.50;;;25.91;51.40;102456.47;4961587;28;20088;-74
2023/09/04 09:30:00;;;;;;;5.80;3.03;;;26.60;96.10;;;25.75;51.76;102451.50;4954196;28;20044;-75
2023/09/04 09:32:33;;;;;;;4.25;2.75;;;26.50;96.30;;;25.65;51.85;102455.09;4986320;28;20509;-75
2023/09/04 09:35:01;;;;;;;5.20;2.60;;;26.40;96.50;;;25.77;52.02;102464.88;4959001;28;20066;-75
2023/09/04 09:37:31;;;;;;;5.38;3.13;;;26.40;96.70;;;25.66;52.15;102460.38;4959427;28;20405;-75
2023/09/04 09:39:57;;;;;;;6.85;2.40;;;26.40;97.10;;;25.83;52.62;102464.34;4958456;28;20085;-74
2023/09/04 09:42:25;;;;;;;4.25;1.98;;;26.50;96.50;;;26.11;51.46;102462.00;4962168;28;20075;-75
2023/09/04 09:44:52;;;;;;;3.50;2.40;;;26.80;96.90;;;26.28;51.33;102457.88;4948290;28;20031;-75
2023/09/04 09:47:18;;;;;;;6.07;1.98;;;26.90;96.60;;;26.51;50.73;102462.13;4946046;28;20495;-75
2023/09/04 09:49:45;;;;;;;4.57;2.25;;;27.00;96.30;;;26.59;49.95;102469.59;4960881;28;20105;-75
2023/09/04 09:52:12;;;;;;;4.00;1.88;;;27.10;96.00;;;26.47;50.34;102465.22;4951128;28;20031;-75
2023/09/04 09:54:42;;;;;;;5.38;1.70;;;27.00;95.70;;;26.41;50.35;102463.91;4961837;28;20023;-75
2023/09/04 09:57:13;;;;;;;8.20;1.85;;;26.90;95.90;;;26.17;51.41;102475.00;4955202;28;20039;-75
2023/09/04 09:59:47;;;;;;;4.78;1.80;;;26.80;95.20;;;25.98;51.20;102465.78;4957988;28;20492;-75
2023/09/04 10:02:23;;;;;;;6.95;2.15;;;26.70;96.10;;;25.95;50.96;102465.19;4959827;28;20039;-74